sensor_id;sensor_type;location;lat;lon;timestamp;P1;durP1;ratioP1;P2;durP2;ratioP2
71763;SDS011;59602;52.142;5.408;2022-11-14T00:00:23;12.25;;;6.22;;
71763;SDS011;59602;52.142;5.408;2022-11-14T00:02:52;12.38;;;6.97;;
71763;SDS011;59602;52.142;5.408;2022-11-14T00:05:19;16.03;;;7.63;;
71763;SDS011;59602;52.142;5.408;2022-11-14T00:07:46;14.88;;;7.70;;
71763;SDS011;59602;52.142;5.408;2022-11-14T00:10:13;15.75;;;7.53;;
71763;SDS011;59602;52.142;5.408;2022-11-14T00:12:40;15.35;;;7.88;;
71763;SDS011;59602;52.142;5.408;2022-11-14T00:15:07;15.80;;;8.30;;
71763;SDS011;59602;52.142;5.408;2022-11-14T00:17:34;16.83;;;8.03;;
71763;SDS011;59602;52.142;5.408;2022-11-14T00:20:02;18.45;;;8.35;;
71763;SDS011;59602;52.142;5.408;2022-11-14T00:22:30;16.70;;;8.30;;
71763;SDS011;59602;52.142;5.408;2022-11-14T00:24:57;16.85;;;8.23;;
71763;SDS011;59602;52.142;5.408;2022-11-14T00:27:23;16.60;;;7.88;;
71763;SDS011;59602;52.142;5.408;2022-11-14T00:29:50;19.67;;;8.63;;
71763;SDS011;59602;52.142;5.408;2022-11-14T00:32:17;18.55;;;9.40;;
71763;SDS011;59602;52.142;5.408;2022-11-14T00:34:43;19.83;;;8.57;;
71763;SDS011;59602;52.142;5.408;2022-11-14T00:37:10;19.48;;;9.13;;
71763;SDS011;59602;52.142;5.408;2022-11-14T00:39:36;22.17;;;9.55;;
71763;SDS011;59602;52.142;5.408;2022-11-14T00:42:03;18.40;;;8.63;;
71763;SDS011;59602;52.142;5.408;2022-11-14T00:44:29;19.67;;;8.93;;
71763;SDS011;59602;52.142;5.408;2022-11-14T00:46:56;21.77;;;9.80;;
71763;SDS011;59602;52.142;5.408;2022-11-14T00:49:22;22.05;;;9.63;;
71763;SDS011;59602;52.142;5.408;2022-11-14T00:51:49;21.95;;;9.73;;
71763;SDS011;59602;52.142;5.408;2022-11-14T00:54:15;26.70;;;10.90;;
71763;SDS011;59602;52.142;5.408;2022-11-14T00:56:42;22.88;;;10.50;;
71763;SDS011;59602;52.142;5.408;2022-11-14T00:59:08;24.08;;;10.30;;
71763;SDS011;59602;52.142;5.408;2022-11-14T01:01:35;24.67;;;11.32;;
71763;SDS011;59602;52.142;5.408;2022-11-14T01:04:01;27.52;;;12.00;;
71763;SDS011;59602;52.142;5.408;2022-11-14T01:06:28;24.53;;;10.07;;
71763;SDS011;59602;52.142;5.408;2022-11-14T01:08:54;22.88;;;10.60;;
71763;SDS011;59602;52.142;5.408;2022-11-14T01:11:21;25.05;;;10.63;;
71763;SDS011;59602;52.142;5.408;2022-11-14T01:13:49;26.58;;;11.20;;
71763;SDS011;59602;52.142;5.408;2022-11-14T01:16:15;24.13;;;11.02;;
71763;SDS011;59602;52.142;5.408;2022-11-14T01:18:42;25.83;;;11.10;;
71763;SDS011;59602;52.142;5.408;2022-11-14T01:21:09;28.42;;;11.68;;
71763;SDS011;59602;52.142;5.408;2022-11-14T01:23:38;27.30;;;11.23;;
71763;SDS011;59602;52.142;5.408;2022-11-14T01:26:07;25.83;;;10.98;;
71763;SDS011;59602;52.142;5.408;2022-11-14T01:28:36;26.08;;;11.48;;
71763;SDS011;59602;52.142;5.408;2022-11-14T01:31:20;24.63;;;11.00;;
71763;SDS011;59602;52.142;5.408;2022-11-14T01:33:49;25.20;;;11.07;;
71763;SDS011;59602;52.142;5.408;2022-11-14T01:36:17;26.85;;;11.18;;
71763;SDS011;59602;52.142;5.408;2022-11-14T01:38:45;29.58;;;12.70;;
71763;SDS011;59602;52.142;5.408;2022-11-14T01:41:12;30.25;;;12.35;;
71763;SDS011;59602;52.142;5.408;2022-11-14T01:43:40;29.50;;;11.33;;
71763;SDS011;59602;52.142;5.408;2022-11-14T01:48:50;25.60;;;10.75;;
71763;SDS011;59602;52.142;5.408;2022-11-14T01:51:30;29.80;;;12.07;;
71763;SDS011;59602;52.142;5.408;2022-11-14T01:54:00;29.65;;;12.15;;
71763;SDS011;59602;52.142;5.408;2022-11-14T01:56:32;29.03;;;12.30;;
71763;SDS011;59602;52.142;5.408;2022-11-14T01:59:04;27.17;;;11.43;;
71763;SDS011;59602;52.142;5.408;2022-11-14T02:01:34;24.88;;;11.82;;
71763;SDS011;59602;52.142;5.408;2022-11-14T02:04:04;23.60;;;10.70;;
71763;SDS011;59602;52.142;5.408;2022-11-14T02:06:35;25.67;;;11.25;;
71763;SDS011;59602;52.142;5.408;2022-11-14T02:09:05;26.60;;;11.27;;
71763;SDS011;59602;52.142;5.408;2022-11-14T02:11:34;28.52;;;12.02;;
71763;SDS011;59602;52.142;5.408;2022-11-14T02:14:03;29.33;;;12.60;;
71763;SDS011;59602;52.142;5.408;2022-11-14T02:16:30;27.50;;;12.32;;
71763;SDS011;59602;52.142;5.408;2022-11-14T02:18:56;27.15;;;12.02;;
71763;SDS011;59602;52.142;5.408;2022-11-14T02:21:23;27.03;;;11.57;;
71763;SDS011;59602;52.142;5.408;2022-11-14T02:23:49;26.80;;;12.10;;
71763;SDS011;59602;52.142;5.408;2022-11-14T02:26:17;23.70;;;10.93;;
71763;SDS011;59602;52.142;5.408;2022-11-14T02:28:44;23.55;;;10.35;;
71763;SDS011;59602;52.142;5.408;2022-11-14T02:31:12;27.55;;;11.98;;
71763;SDS011;59602;52.142;5.408;2022-11-14T02:33:39;26.27;;;11.70;;
71763;SDS011;59602;52.142;5.408;2022-11-14T02:36:06;28.60;;;12.35;;
71763;SDS011;59602;52.142;5.408;2022-11-14T02:38:33;29.85;;;12.40;;
71763;SDS011;59602;52.142;5.408;2022-11-14T02:41:00;30.75;;;12.77;;
71763;SDS011;59602;52.142;5.408;2022-11-14T02:43:27;28.38;;;11.75;;
71763;SDS011;59602;52.142;5.408;2022-11-14T02:45:54;28.77;;;12.03;;
71763;SDS011;59602;52.142;5.408;2022-11-14T02:48:27;31.98;;;12.65;;
71763;SDS011;59602;52.142;5.408;2022-11-14T02:50:55;30.35;;;11.57;;
71763;SDS011;59602;52.142;5.408;2022-11-14T02:53:21;30.75;;;12.63;;
71763;SDS011;59602;52.142;5.408;2022-11-14T02:55:48;31.23;;;13.00;;
71763;SDS011;59602;52.142;5.408;2022-11-14T02:58:14;28.73;;;11.77;;
71763;SDS011;59602;52.142;5.408;2022-11-14T03:00:41;29.85;;;11.95;;
71763;SDS011;59602;52.142;5.408;2022-11-14T03:03:27;32.95;;;12.38;;
71763;SDS011;59602;52.142;5.408;2022-11-14T03:05:57;30.45;;;12.70;;
71763;SDS011;59602;52.142;5.408;2022-11-14T03:08:24;31.42;;;12.90;;
71763;SDS011;59602;52.142;5.408;2022-11-14T03:10:51;29.13;;;12.43;;
71763;SDS011;59602;52.142;5.408;2022-11-14T03:13:18;27.33;;;10.80;;
71763;SDS011;59602;52.142;5.408;2022-11-14T03:15:45;25.05;;;10.00;;
71763;SDS011;59602;52.142;5.408;2022-11-14T03:18:11;29.75;;;11.82;;
71763;SDS011;59602;52.142;5.408;2022-11-14T03:20:38;28.80;;;11.40;;
71763;SDS011;59602;52.142;5.408;2022-11-14T03:23:05;29.93;;;12.33;;
71763;SDS011;59602;52.142;5.408;2022-11-14T03:25:31;25.65;;;10.30;;
71763;SDS011;59602;52.142;5.408;2022-11-14T03:27:58;26.42;;;10.43;;
71763;SDS011;59602;52.142;5.408;2022-11-14T03:30:24;26.95;;;11.35;;
71763;SDS011;59602;52.142;5.408;2022-11-14T03:32:51;26.23;;;11.15;;
71763;SDS011;59602;52.142;5.408;2022-11-14T03:35:17;26.13;;;10.67;;
71763;SDS011;59602;52.142;5.408;2022-11-14T03:37:44;26.45;;;10.68;;
71763;SDS011;59602;52.142;5.408;2022-11-14T03:40:10;26.33;;;10.65;;
71763;SDS011;59602;52.142;5.408;2022-11-14T03:42:37;27.98;;;11.07;;
71763;SDS011;59602;52.142;5.408;2022-11-14T03:45:04;28.75;;;10.77;;
71763;SDS011;59602;52.142;5.408;2022-11-14T03:47:32;30.87;;;11.13;;
71763;SDS011;59602;52.142;5.408;2022-11-14T03:49:58;26.38;;;11.48;;
71763;SDS011;59602;52.142;5.408;2022-11-14T03:52:25;29.38;;;10.98;;
71763;SDS011;59602;52.142;5.408;2022-11-14T03:54:51;32.15;;;11.25;;
71763;SDS011;59602;52.142;5.408;2022-11-14T03:57:18;29.27;;;11.45;;
71763;SDS011;59602;52.142;5.408;2022-11-14T03:59:44;28.83;;;11.43;;
71763;SDS011;59602;52.142;5.408;2022-11-14T04:02:11;31.00;;;12.55;;
71763;SDS011;59602;52.142;5.408;2022-11-14T04:04:37;31.35;;;11.60;;
71763;SDS011;59602;52.142;5.408;2022-11-14T04:07:04;26.20;;;10.57;;
71763;SDS011;59602;52.142;5.408;2022-11-14T04:09:31;27.83;;;11.52;;
71763;SDS011;59602;52.142;5.408;2022-11-14T04:11:58;29.57;;;11.80;;
71763;SDS011;59602;52.142;5.408;2022-11-14T04:14:25;27.95;;;11.65;;
71763;SDS011;59602;52.142;5.408;2022-11-14T04:16:51;28.55;;;11.48;;
71763;SDS011;59602;52.142;5.408;2022-11-14T04:19:17;26.13;;;10.30;;
71763;SDS011;59602;52.142;5.408;2022-11-14T04:21:44;27.67;;;10.40;;
71763;SDS011;59602;52.142;5.408;2022-11-14T04:24:10;30.27;;;11.37;;
71763;SDS011;59602;52.142;5.408;2022-11-14T04:26:37;29.10;;;10.40;;
71763;SDS011;59602;52.142;5.408;2022-11-14T04:29:03;28.60;;;11.48;;
71763;SDS011;59602;52.142;5.408;2022-11-14T04:31:30;29.08;;;10.93;;
71763;SDS011;59602;52.142;5.408;2022-11-14T04:33:56;29.00;;;11.50;;
71763;SDS011;59602;52.142;5.408;2022-11-14T04:36:23;33.53;;;12.40;;
71763;SDS011;59602;52.142;5.408;2022-11-14T04:38:49;30.35;;;10.55;;
71763;SDS011;59602;52.142;5.408;2022-11-14T04:41:16;30.63;;;11.75;;
71763;SDS011;59602;52.142;5.408;2022-11-14T04:43:42;27.33;;;11.05;;
71763;SDS011;59602;52.142;5.408;2022-11-14T04:46:15;28.80;;;10.63;;
71763;SDS011;59602;52.142;5.408;2022-11-14T04:48:42;28.87;;;10.83;;
71763;SDS011;59602;52.142;5.408;2022-11-14T04:51:08;27.77;;;12.18;;
71763;SDS011;59602;52.142;5.408;2022-11-14T04:53:35;31.75;;;11.23;;
71763;SDS011;59602;52.142;5.408;2022-11-14T04:56:01;29.90;;;10.45;;
71763;SDS011;59602;52.142;5.408;2022-11-14T04:58:28;28.73;;;10.98;;
71763;SDS011;59602;52.142;5.408;2022-11-14T05:00:55;27.93;;;10.90;;
71763;SDS011;59602;52.142;5.408;2022-11-14T05:03:23;26.15;;;10.68;;
71763;SDS011;59602;52.142;5.408;2022-11-14T05:05:50;27.95;;;10.25;;
71763;SDS011;59602;52.142;5.408;2022-11-14T05:08:17;37.50;;;11.93;;
71763;SDS011;59602;52.142;5.408;2022-11-14T05:10:44;25.80;;;10.55;;
71763;SDS011;59602;52.142;5.408;2022-11-14T05:13:11;28.03;;;10.80;;
71763;SDS011;59602;52.142;5.408;2022-11-14T05:15:38;32.95;;;11.60;;
71763;SDS011;59602;52.142;5.408;2022-11-14T05:18:04;28.80;;;10.60;;
71763;SDS011;59602;52.142;5.408;2022-11-14T05:20:31;31.70;;;10.98;;
71763;SDS011;59602;52.142;5.408;2022-11-14T05:22:57;27.27;;;11.00;;
71763;SDS011;59602;52.142;5.408;2022-11-14T05:25:24;31.43;;;11.13;;
71763;SDS011;59602;52.142;5.408;2022-11-14T05:27:52;34.53;;;13.02;;
71763;SDS011;59602;52.142;5.408;2022-11-14T05:30:18;28.63;;;10.82;;
71763;SDS011;59602;52.142;5.408;2022-11-14T05:32:45;34.20;;;11.88;;
71763;SDS011;59602;52.142;5.408;2022-11-14T05:35:11;31.05;;;11.35;;
71763;SDS011;59602;52.142;5.408;2022-11-14T05:37:38;26.27;;;10.33;;
71763;SDS011;59602;52.142;5.408;2022-11-14T05:40:05;29.83;;;10.80;;
71763;SDS011;59602;52.142;5.408;2022-11-14T05:42:31;36.25;;;13.63;;
71763;SDS011;59602;52.142;5.408;2022-11-14T05:44:58;38.03;;;14.20;;
71763;SDS011;59602;52.142;5.408;2022-11-14T05:47:24;39.60;;;15.38;;
71763;SDS011;59602;52.142;5.408;2022-11-14T05:49:51;36.57;;;13.77;;
71763;SDS011;59602;52.142;5.408;2022-11-14T05:52:17;36.90;;;13.02;;
71763;SDS011;59602;52.142;5.408;2022-11-14T05:54:44;31.02;;;12.48;;
71763;SDS011;59602;52.142;5.408;2022-11-14T05:57:11;32.25;;;12.52;;
71763;SDS011;59602;52.142;5.408;2022-11-14T05:59:38;32.83;;;12.43;;
71763;SDS011;59602;52.142;5.408;2022-11-14T06:02:05;32.20;;;11.60;;
71763;SDS011;59602;52.142;5.408;2022-11-14T06:04:31;28.00;;;10.38;;
71763;SDS011;59602;52.142;5.408;2022-11-14T06:06:58;29.35;;;10.77;;
71763;SDS011;59602;52.142;5.408;2022-11-14T06:09:24;26.88;;;11.23;;
71763;SDS011;59602;52.142;5.408;2022-11-14T06:11:51;25.83;;;10.23;;
71763;SDS011;59602;52.142;5.408;2022-11-14T06:14:17;23.13;;;9.80;;
71763;SDS011;59602;52.142;5.408;2022-11-14T06:16:44;28.42;;;11.40;;
71763;SDS011;59602;52.142;5.408;2022-11-14T06:19:11;29.50;;;10.80;;
71763;SDS011;59602;52.142;5.408;2022-11-14T06:21:37;30.85;;;11.05;;
71763;SDS011;59602;52.142;5.408;2022-11-14T06:24:04;28.35;;;12.27;;
71763;SDS011;59602;52.142;5.408;2022-11-14T06:26:31;32.77;;;13.60;;
71763;SDS011;59602;52.142;5.408;2022-11-14T06:28:57;29.10;;;12.65;;
71763;SDS011;59602;52.142;5.408;2022-11-14T06:31:25;32.13;;;12.10;;
71763;SDS011;59602;52.142;5.408;2022-11-14T06:33:52;31.67;;;12.32;;
71763;SDS011;59602;52.142;5.408;2022-11-14T06:36:19;33.35;;;12.27;;
71763;SDS011;59602;52.142;5.408;2022-11-14T06:38:46;33.03;;;13.23;;
71763;SDS011;59602;52.142;5.408;2022-11-14T06:41:16;33.47;;;12.38;;
71763;SDS011;59602;52.142;5.408;2022-11-14T06:43:46;33.22;;;12.75;;
71763;SDS011;59602;52.142;5.408;2022-11-14T06:46:15;45.72;;;16.70;;
71763;SDS011;59602;52.142;5.408;2022-11-14T06:48:44;39.50;;;14.90;;
71763;SDS011;59602;52.142;5.408;2022-11-14T06:51:12;27.57;;;10.50;;
71763;SDS011;59602;52.142;5.408;2022-11-14T06:53:39;29.58;;;10.95;;
71763;SDS011;59602;52.142;5.408;2022-11-14T06:56:08;24.40;;;10.43;;
71763;SDS011;59602;52.142;5.408;2022-11-14T06:58:38;28.58;;;10.48;;
71763;SDS011;59602;52.142;5.408;2022-11-14T07:01:08;27.77;;;10.90;;
71763;SDS011;59602;52.142;5.408;2022-11-14T07:03:37;26.27;;;10.40;;
71763;SDS011;59602;52.142;5.408;2022-11-14T07:06:05;26.98;;;10.57;;
71763;SDS011;59602;52.142;5.408;2022-11-14T07:08:32;28.75;;;11.07;;
71763;SDS011;59602;52.142;5.408;2022-11-14T07:11:00;29.98;;;10.88;;
71763;SDS011;59602;52.142;5.408;2022-11-14T07:13:29;27.98;;;10.55;;
71763;SDS011;59602;52.142;5.408;2022-11-14T07:15:56;25.37;;;9.80;;
71763;SDS011;59602;52.142;5.408;2022-11-14T07:18:23;27.38;;;9.77;;
71763;SDS011;59602;52.142;5.408;2022-11-14T07:20:55;28.05;;;9.95;;
71763;SDS011;59602;52.142;5.408;2022-11-14T07:23:22;24.95;;;9.30;;
71763;SDS011;59602;52.142;5.408;2022-11-14T07:25:49;28.73;;;9.55;;
71763;SDS011;59602;52.142;5.408;2022-11-14T07:28:15;24.87;;;11.30;;
71763;SDS011;59602;52.142;5.408;2022-11-14T07:30:42;27.08;;;10.23;;
71763;SDS011;59602;52.142;5.408;2022-11-14T07:33:09;25.45;;;9.55;;
71763;SDS011;59602;52.142;5.408;2022-11-14T07:35:39;23.42;;;9.27;;
71763;SDS011;59602;52.142;5.408;2022-11-14T07:38:07;25.98;;;10.02;;
71763;SDS011;59602;52.142;5.408;2022-11-14T07:40:33;24.87;;;9.73;;
71763;SDS011;59602;52.142;5.408;2022-11-14T07:43:03;29.27;;;10.15;;
71763;SDS011;59602;52.142;5.408;2022-11-14T07:45:29;22.52;;;8.30;;
71763;SDS011;59602;52.142;5.408;2022-11-14T07:47:57;22.85;;;8.55;;
71763;SDS011;59602;52.142;5.408;2022-11-14T07:50:26;25.50;;;8.95;;
71763;SDS011;59602;52.142;5.408;2022-11-14T07:52:55;26.40;;;8.90;;
71763;SDS011;59602;52.142;5.408;2022-11-14T07:55:22;25.50;;;9.02;;
71763;SDS011;59602;52.142;5.408;2022-11-14T07:57:51;24.67;;;8.68;;
71763;SDS011;59602;52.142;5.408;2022-11-14T08:00:19;25.48;;;8.43;;
71763;SDS011;59602;52.142;5.408;2022-11-14T08:02:46;23.33;;;8.32;;
71763;SDS011;59602;52.142;5.408;2022-11-14T08:05:12;22.00;;;8.83;;
71763;SDS011;59602;52.142;5.408;2022-11-14T08:07:39;29.23;;;9.60;;
71763;SDS011;59602;52.142;5.408;2022-11-14T08:10:06;31.88;;;9.52;;
71763;SDS011;59602;52.142;5.408;2022-11-14T08:12:33;30.23;;;11.30;;
71763;SDS011;59602;52.142;5.408;2022-11-14T08:15:00;26.17;;;9.93;;
71763;SDS011;59602;52.142;5.408;2022-11-14T08:17:28;29.63;;;12.53;;
71763;SDS011;59602;52.142;5.408;2022-11-14T08:19:55;26.10;;;10.77;;
71763;SDS011;59602;52.142;5.408;2022-11-14T08:22:21;25.73;;;10.27;;
71763;SDS011;59602;52.142;5.408;2022-11-14T08:24:48;27.23;;;11.10;;
71763;SDS011;59602;52.142;5.408;2022-11-14T08:27:14;25.48;;;9.15;;
71763;SDS011;59602;52.142;5.408;2022-11-14T08:29:41;23.23;;;9.70;;
71763;SDS011;59602;52.142;5.408;2022-11-14T08:32:07;22.77;;;9.18;;
71763;SDS011;59602;52.142;5.408;2022-11-14T08:34:35;26.48;;;10.20;;
71763;SDS011;59602;52.142;5.408;2022-11-14T08:37:02;25.40;;;9.98;;
71763;SDS011;59602;52.142;5.408;2022-11-14T08:39:29;25.30;;;9.65;;
71763;SDS011;59602;52.142;5.408;2022-11-14T08:41:55;23.47;;;9.67;;
71763;SDS011;59602;52.142;5.408;2022-11-14T08:44:21;24.25;;;9.90;;
71763;SDS011;59602;52.142;5.408;2022-11-14T08:46:49;25.02;;;10.25;;
71763;SDS011;59602;52.142;5.408;2022-11-14T08:49:30;21.05;;;8.52;;
71763;SDS011;59602;52.142;5.408;2022-11-14T08:51:59;36.20;;;16.70;;
71763;SDS011;59602;52.142;5.408;2022-11-14T08:54:25;26.73;;;9.30;;
71763;SDS011;59602;52.142;5.408;2022-11-14T08:56:53;34.55;;;13.23;;
71763;SDS011;59602;52.142;5.408;2022-11-14T08:59:23;26.67;;;11.48;;
71763;SDS011;59602;52.142;5.408;2022-11-14T09:01:51;27.08;;;10.65;;
71763;SDS011;59602;52.142;5.408;2022-11-14T09:04:17;24.92;;;9.05;;
71763;SDS011;59602;52.142;5.408;2022-11-14T09:06:44;22.10;;;9.07;;
71763;SDS011;59602;52.142;5.408;2022-11-14T09:09:12;22.38;;;8.40;;
71763;SDS011;59602;52.142;5.408;2022-11-14T09:11:39;22.13;;;9.68;;
71763;SDS011;59602;52.142;5.408;2022-11-14T09:14:06;22.00;;;9.20;;
71763;SDS011;59602;52.142;5.408;2022-11-14T09:16:32;23.65;;;9.57;;
71763;SDS011;59602;52.142;5.408;2022-11-14T09:18:59;19.37;;;8.53;;
71763;SDS011;59602;52.142;5.408;2022-11-14T09:21:26;22.35;;;9.43;;
71763;SDS011;59602;52.142;5.408;2022-11-14T09:23:54;21.90;;;9.35;;
71763;SDS011;59602;52.142;5.408;2022-11-14T09:26:26;21.77;;;9.00;;
71763;SDS011;59602;52.142;5.408;2022-11-14T09:28:54;24.55;;;9.20;;
71763;SDS011;59602;52.142;5.408;2022-11-14T09:31:20;17.67;;;8.67;;
71763;SDS011;59602;52.142;5.408;2022-11-14T09:33:47;19.45;;;9.05;;
71763;SDS011;59602;52.142;5.408;2022-11-14T09:36:13;20.88;;;8.35;;
71763;SDS011;59602;52.142;5.408;2022-11-14T09:38:41;22.00;;;9.85;;
71763;SDS011;59602;52.142;5.408;2022-11-14T09:41:15;22.30;;;9.10;;
71763;SDS011;59602;52.142;5.408;2022-11-14T09:46:57;22.30;;;8.98;;
71763;SDS011;59602;52.142;5.408;2022-11-14T09:49:34;21.38;;;9.05;;
71763;SDS011;59602;52.142;5.408;2022-11-14T09:52:16;22.35;;;8.93;;
71763;SDS011;59602;52.142;5.408;2022-11-14T09:54:55;21.75;;;8.43;;
71763;SDS011;59602;52.142;5.408;2022-11-14T09:57:23;23.73;;;9.73;;
71763;SDS011;59602;52.142;5.408;2022-11-14T09:59:51;19.55;;;9.02;;
71763;SDS011;59602;52.142;5.408;2022-11-14T10:02:24;20.63;;;8.77;;
71763;SDS011;59602;52.142;5.408;2022-11-14T10:05:00;15.60;;;8.10;;
71763;SDS011;59602;52.142;5.408;2022-11-14T10:07:40;16.45;;;7.45;;
71763;SDS011;59602;52.142;5.408;2022-11-14T10:10:36;21.77;;;9.30;;
71763;SDS011;59602;52.142;5.408;2022-11-14T10:13:14;17.27;;;7.25;;
71763;SDS011;59602;52.142;5.408;2022-11-14T10:16:02;15.68;;;7.20;;
71763;SDS011;59602;52.142;5.408;2022-11-14T10:18:37;15.80;;;7.53;;
71763;SDS011;59602;52.142;5.408;2022-11-14T10:21:24;15.65;;;7.65;;
71763;SDS011;59602;52.142;5.408;2022-11-14T10:24:12;15.33;;;7.20;;
71763;SDS011;59602;52.142;5.408;2022-11-14T10:27:02;16.17;;;7.30;;
71763;SDS011;59602;52.142;5.408;2022-11-14T10:29:37;13.80;;;6.90;;
71763;SDS011;59602;52.142;5.408;2022-11-14T10:35:06;13.77;;;6.88;;
71763;SDS011;59602;52.142;5.408;2022-11-14T10:37:44;14.50;;;6.97;;
71763;SDS011;59602;52.142;5.408;2022-11-14T10:46:09;12.65;;;6.78;;
71763;SDS011;59602;52.142;5.408;2022-11-14T10:48:43;16.27;;;7.38;;
71763;SDS011;59602;52.142;5.408;2022-11-14T10:56:34;28.10;;;10.98;;
71763;SDS011;59602;52.142;5.408;2022-11-14T10:59:11;20.77;;;8.82;;
71763;SDS011;59602;52.142;5.408;2022-11-14T11:01:39;17.50;;;7.97;;
71763;SDS011;59602;52.142;5.408;2022-11-14T11:06:56;37.85;;;12.82;;
71763;SDS011;59602;52.142;5.408;2022-11-14T11:10:02;17.95;;;8.05;;
71763;SDS011;59602;52.142;5.408;2022-11-14T11:12:49;21.92;;;8.35;;
71763;SDS011;59602;52.142;5.408;2022-11-14T11:15:20;20.67;;;9.85;;
71763;SDS011;59602;52.142;5.408;2022-11-14T11:22:49;21.70;;;8.90;;
71763;SDS011;59602;52.142;5.408;2022-11-14T11:25:35;17.17;;;8.00;;
71763;SDS011;59602;52.142;5.408;2022-11-14T11:30:32;17.33;;;8.10;;
71763;SDS011;59602;52.142;5.408;2022-11-14T11:33:13;20.15;;;9.65;;
71763;SDS011;59602;52.142;5.408;2022-11-14T11:35:42;17.50;;;8.25;;
71763;SDS011;59602;52.142;5.408;2022-11-14T11:38:13;18.17;;;8.43;;
71763;SDS011;59602;52.142;5.408;2022-11-14T11:40:43;21.80;;;9.38;;
71763;SDS011;59602;52.142;5.408;2022-11-14T11:43:16;26.27;;;10.83;;
71763;SDS011;59602;52.142;5.408;2022-11-14T11:46:08;18.85;;;8.32;;
71763;SDS011;59602;52.142;5.408;2022-11-14T11:48:40;20.52;;;9.02;;
71763;SDS011;59602;52.142;5.408;2022-11-14T11:51:11;31.65;;;19.17;;
71763;SDS011;59602;52.142;5.408;2022-11-14T11:53:42;17.05;;;8.25;;
71763;SDS011;59602;52.142;5.408;2022-11-14T11:56:15;18.37;;;9.60;;
71763;SDS011;59602;52.142;5.408;2022-11-14T11:58:47;17.08;;;8.57;;
71763;SDS011;59602;52.142;5.408;2022-11-14T12:01:17;14.57;;;8.15;;
71763;SDS011;59602;52.142;5.408;2022-11-14T12:03:48;17.52;;;8.82;;
71763;SDS011;59602;52.142;5.408;2022-11-14T12:06:18;15.93;;;8.45;;
71763;SDS011;59602;52.142;5.408;2022-11-14T12:08:54;17.37;;;8.83;;
71763;SDS011;59602;52.142;5.408;2022-11-14T12:11:30;16.63;;;7.90;;
71763;SDS011;59602;52.142;5.408;2022-11-14T12:22:23;15.20;;;8.43;;
71763;SDS011;59602;52.142;5.408;2022-11-14T12:25:03;18.05;;;8.98;;
71763;SDS011;59602;52.142;5.408;2022-11-14T12:28:01;18.10;;;8.40;;
71763;SDS011;59602;52.142;5.408;2022-11-14T12:30:39;18.65;;;8.40;;
71763;SDS011;59602;52.142;5.408;2022-11-14T12:35:51;21.70;;;9.13;;
71763;SDS011;59602;52.142;5.408;2022-11-14T12:38:21;17.65;;;9.40;;
71763;SDS011;59602;52.142;5.408;2022-11-14T12:40:52;21.45;;;10.27;;
71763;SDS011;59602;52.142;5.408;2022-11-14T12:46:08;22.25;;;11.80;;
71763;SDS011;59602;52.142;5.408;2022-11-14T12:48:38;19.87;;;10.40;;
71763;SDS011;59602;52.142;5.408;2022-11-14T12:53:51;20.33;;;9.73;;
71763;SDS011;59602;52.142;5.408;2022-11-14T13:04:14;23.67;;;10.63;;
71763;SDS011;59602;52.142;5.408;2022-11-14T13:06:54;22.65;;;11.07;;
71763;SDS011;59602;52.142;5.408;2022-11-14T13:09:30;23.15;;;11.32;;
71763;SDS011;59602;52.142;5.408;2022-11-14T13:18:18;23.08;;;10.60;;
71763;SDS011;59602;52.142;5.408;2022-11-14T13:24:11;23.70;;;11.02;;
71763;SDS011;59602;52.142;5.408;2022-11-14T13:26:42;24.75;;;10.45;;
71763;SDS011;59602;52.142;5.408;2022-11-14T13:29:45;29.23;;;13.63;;
71763;SDS011;59602;52.142;5.408;2022-11-14T13:32:08;47.33;;;17.70;;
71763;SDS011;59602;52.142;5.408;2022-11-14T13:34:40;70.07;;;26.00;;
71763;SDS011;59602;52.142;5.408;2022-11-14T13:40:12;25.95;;;13.32;;
71763;SDS011;59602;52.142;5.408;2022-11-14T13:42:59;24.57;;;12.70;;
71763;SDS011;59602;52.142;5.408;2022-11-14T13:45:51;25.60;;;11.00;;
71763;SDS011;59602;52.142;5.408;2022-11-14T13:48:35;27.13;;;12.45;;
71763;SDS011;59602;52.142;5.408;2022-11-14T13:51:14;29.63;;;19.75;;
71763;SDS011;59602;52.142;5.408;2022-11-14T13:54:09;25.48;;;11.82;;
71763;SDS011;59602;52.142;5.408;2022-11-14T13:59:18;25.15;;;11.15;;
71763;SDS011;59602;52.142;5.408;2022-11-14T14:02:07;26.63;;;11.93;;
71763;SDS011;59602;52.142;5.408;2022-11-14T14:05:03;21.77;;;10.38;;
71763;SDS011;59602;52.142;5.408;2022-11-14T14:07:50;21.25;;;10.68;;
71763;SDS011;59602;52.142;5.408;2022-11-14T14:16:32;23.98;;;11.38;;
71763;SDS011;59602;52.142;5.408;2022-11-14T14:19:10;24.30;;;11.68;;
71763;SDS011;59602;52.142;5.408;2022-11-14T14:21:53;22.30;;;11.32;;
71763;SDS011;59602;52.142;5.408;2022-11-14T14:24:38;27.17;;;11.80;;
71763;SDS011;59602;52.142;5.408;2022-11-14T14:27:15;26.02;;;12.70;;
71763;SDS011;59602;52.142;5.408;2022-11-14T14:32:30;30.33;;;14.15;;
71763;SDS011;59602;52.142;5.408;2022-11-14T14:34:57;30.73;;;13.15;;
71763;SDS011;59602;52.142;5.408;2022-11-14T14:37:26;28.00;;;12.17;;
71763;SDS011;59602;52.142;5.408;2022-11-14T14:39:57;32.33;;;13.43;;
71763;SDS011;59602;52.142;5.408;2022-11-14T14:42:25;34.42;;;14.38;;
71763;SDS011;59602;52.142;5.408;2022-11-14T14:45:00;31.33;;;14.02;;
71763;SDS011;59602;52.142;5.408;2022-11-14T14:50:01;31.93;;;14.80;;
71763;SDS011;59602;52.142;5.408;2022-11-14T14:52:32;34.95;;;15.88;;
71763;SDS011;59602;52.142;5.408;2022-11-14T14:55:02;32.25;;;15.68;;
71763;SDS011;59602;52.142;5.408;2022-11-14T14:57:31;33.33;;;14.98;;
71763;SDS011;59602;52.142;5.408;2022-11-14T14:59:59;33.55;;;14.70;;
71763;SDS011;59602;52.142;5.408;2022-11-14T15:02:26;35.83;;;15.50;;
71763;SDS011;59602;52.142;5.408;2022-11-14T15:04:54;47.65;;;19.77;;
71763;SDS011;59602;52.142;5.408;2022-11-14T15:07:22;35.70;;;17.13;;
71763;SDS011;59602;52.142;5.408;2022-11-14T15:09:52;34.40;;;15.30;;
71763;SDS011;59602;52.142;5.408;2022-11-14T15:12:21;32.45;;;14.95;;
71763;SDS011;59602;52.142;5.408;2022-11-14T15:14:51;33.43;;;14.97;;
71763;SDS011;59602;52.142;5.408;2022-11-14T15:17:20;31.35;;;14.30;;
71763;SDS011;59602;52.142;5.408;2022-11-14T15:19:48;31.10;;;14.52;;
71763;SDS011;59602;52.142;5.408;2022-11-14T15:27:44;29.90;;;13.60;;
71763;SDS011;59602;52.142;5.408;2022-11-14T15:30:20;28.85;;;13.27;;
71763;SDS011;59602;52.142;5.408;2022-11-14T15:32:57;29.20;;;12.73;;
71763;SDS011;59602;52.142;5.408;2022-11-14T15:35:27;31.75;;;12.68;;
71763;SDS011;59602;52.142;5.408;2022-11-14T15:38:00;27.60;;;12.90;;
71763;SDS011;59602;52.142;5.408;2022-11-14T15:41:08;26.00;;;11.40;;
71763;SDS011;59602;52.142;5.408;2022-11-14T15:48:56;30.42;;;13.30;;
71763;SDS011;59602;52.142;5.408;2022-11-14T15:51:39;27.85;;;12.77;;
71763;SDS011;59602;52.142;5.408;2022-11-14T15:54:25;30.67;;;15.50;;
71763;SDS011;59602;52.142;5.408;2022-11-14T15:56:56;30.40;;;12.93;;
71763;SDS011;59602;52.142;5.408;2022-11-14T15:59:25;27.38;;;11.60;;
71763;SDS011;59602;52.142;5.408;2022-11-14T16:01:55;24.58;;;11.82;;
71763;SDS011;59602;52.142;5.408;2022-11-14T16:04:28;26.77;;;12.30;;
71763;SDS011;59602;52.142;5.408;2022-11-14T16:06:57;29.77;;;11.93;;
71763;SDS011;59602;52.142;5.408;2022-11-14T16:09:26;30.25;;;12.82;;
71763;SDS011;59602;52.142;5.408;2022-11-14T16:11:53;30.25;;;12.95;;
71763;SDS011;59602;52.142;5.408;2022-11-14T16:14:19;28.38;;;12.25;;